sensor_id;sensor_type;location;lat;lon;timestamp;P1;durP1;ratioP1;P2;durP2;ratioP2
27722;SDS011;15123;-37.794;175.246;2023-07-02T00:00:45;6.88;;;1.10;;
27722;SDS011;15123;-37.794;175.246;2023-07-02T00:04:15;8.18;;;1.10;;
27722;SDS011;15123;-37.794;175.246;2023-07-02T00:07:39;7.85;;;0.93;;
27722;SDS011;15123;-37.794;175.246;2023-07-02T00:11:03;10.75;;;1.60;;
27722;SDS011;15123;-37.794;175.246;2023-07-02T00:14:29;12.55;;;1.50;;
27722;SDS011;15123;-37.794;175.246;2023-07-02T00:17:53;10.52;;;1.63;;
27722;SDS011;15123;-37.794;175.246;2023-07-02T00:21:19;10.48;;;1.25;;
27722;SDS011;15123;-37.794;175.246;2023-07-02T00:24:43;13.65;;;1.95;;
27722;SDS011;15123;-37.794;175.246;2023-07-02T00:28:12;11.82;;;1.45;;
27722;SDS011;15123;-37.794;175.246;2023-07-02T00:31:37;10.95;;;1.90;;
27722;SDS011;15123;-37.794;175.246;2023-07-02T00:35:01;11.18;;;2.42;;
27722;SDS011;15123;-37.794;175.246;2023-07-02T00:38:25;10.13;;;1.30;;
27722;SDS011;15123;-37.794;175.246;2023-07-02T00:41:50;8.07;;;1.25;;
27722;SDS011;15123;-37.794;175.246;2023-07-02T00:45:15;7.05;;;0.90;;
27722;SDS011;15123;-37.794;175.246;2023-07-02T00:48:46;8.43;;;1.17;;
27722;SDS011;15123;-37.794;175.246;2023-07-02T00:52:11;7.32;;;1.10;;
27722;SDS011;15123;-37.794;175.246;2023-07-02T00:55:29;12.50;;;1.10;;
27722;SDS011;15123;-37.794;175.246;2023-07-02T00:58:49;8.25;;;1.25;;
27722;SDS011;15123;-37.794;175.246;2023-07-02T01:02:15;10.48;;;1.10;;
27722;SDS011;15123;-37.794;175.246;2023-07-02T01:05:41;9.50;;;1.17;;
27722;SDS011;15123;-37.794;175.246;2023-07-02T01:09:06;5.32;;;0.88;;
27722;SDS011;15123;-37.794;175.246;2023-07-02T01:12:30;6.32;;;0.85;;
27722;SDS011;15123;-37.794;175.246;2023-07-02T01:15:54;5.90;;;0.70;;
27722;SDS011;15123;-37.794;175.246;2023-07-02T01:19:36;5.30;;;0.82;;
27722;SDS011;15123;-37.794;175.246;2023-07-02T01:23:17;9.93;;;1.20;;
27722;SDS011;15123;-37.794;175.246;2023-07-02T01:26:42;8.23;;;1.10;;
27722;SDS011;15123;-37.794;175.246;2023-07-02T01:30:06;8.90;;;1.30;;
27722;SDS011;15123;-37.794;175.246;2023-07-02T01:33:32;12.52;;;1.38;;
27722;SDS011;15123;-37.794;175.246;2023-07-02T01:36:56;10.38;;;1.30;;
27722;SDS011;15123;-37.794;175.246;2023-07-02T01:40:21;10.82;;;1.23;;
27722;SDS011;15123;-37.794;175.246;2023-07-02T01:43:46;11.05;;;2.15;;
27722;SDS011;15123;-37.794;175.246;2023-07-02T01:47:12;12.20;;;1.38;;
27722;SDS011;15123;-37.794;175.246;2023-07-02T01:50:35;9.48;;;1.08;;
27722;SDS011;15123;-37.794;175.246;2023-07-02T01:54:00;10.00;;;1.30;;
27722;SDS011;15123;-37.794;175.246;2023-07-02T01:57:17;9.77;;;1.23;;
27722;SDS011;15123;-37.794;175.246;2023-07-02T02:00:35;10.20;;;1.17;;
27722;SDS011;15123;-37.794;175.246;2023-07-02T02:04:00;11.48;;;1.67;;
27722;SDS011;15123;-37.794;175.246;2023-07-02T02:07:24;11.10;;;1.30;;
27722;SDS011;15123;-37.794;175.246;2023-07-02T02:10:51;10.35;;;1.83;;
27722;SDS011;15123;-37.794;175.246;2023-07-02T02:14:18;17.27;;;3.70;;
27722;SDS011;15123;-37.794;175.246;2023-07-02T02:17:43;17.85;;;2.45;;
27722;SDS011;15123;-37.794;175.246;2023-07-02T02:21:27;13.82;;;1.85;;
27722;SDS011;15123;-37.794;175.246;2023-07-02T02:24:52;12.75;;;3.05;;
27722;SDS011;15123;-37.794;175.246;2023-07-02T02:28:18;14.10;;;2.70;;
27722;SDS011;15123;-37.794;175.246;2023-07-02T02:31:42;11.95;;;3.13;;
27722;SDS011;15123;-37.794;175.246;2023-07-02T02:35:08;11.80;;;2.00;;
27722;SDS011;15123;-37.794;175.246;2023-07-02T02:38:33;12.90;;;2.85;;
27722;SDS011;15123;-37.794;175.246;2023-07-02T02:42:00;11.82;;;2.03;;
27722;SDS011;15123;-37.794;175.246;2023-07-02T02:45:25;9.27;;;1.98;;
27722;SDS011;15123;-37.794;175.246;2023-07-02T02:48:49;15.23;;;2.72;;
27722;SDS011;15123;-37.794;175.246;2023-07-02T02:52:15;9.40;;;1.75;;
27722;SDS011;15123;-37.794;175.246;2023-07-02T02:55:40;9.60;;;1.25;;
27722;SDS011;15123;-37.794;175.246;2023-07-02T02:58:59;10.43;;;1.95;;
27722;SDS011;15123;-37.794;175.246;2023-07-02T03:02:16;14.80;;;2.58;;
27722;SDS011;15123;-37.794;175.246;2023-07-02T03:05:41;11.85;;;1.77;;
27722;SDS011;15123;-37.794;175.246;2023-07-02T03:09:04;9.57;;;1.98;;
27722;SDS011;15123;-37.794;175.246;2023-07-02T03:12:30;12.00;;;1.77;;
27722;SDS011;15123;-37.794;175.246;2023-07-02T03:15:53;10.65;;;1.70;;
27722;SDS011;15123;-37.794;175.246;2023-07-02T03:19:18;7.47;;;1.52;;
27722;SDS011;15123;-37.794;175.246;2023-07-02T03:22:43;12.60;;;1.77;;
27722;SDS011;15123;-37.794;175.246;2023-07-02T03:26:07;12.00;;;1.83;;
27722;SDS011;15123;-37.794;175.246;2023-07-02T03:29:33;11.70;;;2.38;;
27722;SDS011;15123;-37.794;175.246;2023-07-02T03:33:01;13.93;;;1.73;;
27722;SDS011;15123;-37.794;175.246;2023-07-02T03:36:27;18.35;;;2.28;;
27722;SDS011;15123;-37.794;175.246;2023-07-02T03:39:51;14.57;;;2.20;;
27722;SDS011;15123;-37.794;175.246;2023-07-02T03:43:16;14.70;;;2.88;;
27722;SDS011;15123;-37.794;175.246;2023-07-02T03:46:43;10.82;;;1.90;;
27722;SDS011;15123;-37.794;175.246;2023-07-02T03:50:07;13.52;;;2.20;;
27722;SDS011;15123;-37.794;175.246;2023-07-02T03:53:34;14.40;;;1.88;;
27722;SDS011;15123;-37.794;175.246;2023-07-02T03:56:59;12.40;;;2.17;;
27722;SDS011;15123;-37.794;175.246;2023-07-02T04:00:23;13.20;;;1.73;;
27722;SDS011;15123;-37.794;175.246;2023-07-02T04:03:50;10.70;;;1.40;;
27722;SDS011;15123;-37.794;175.246;2023-07-02T04:07:15;14.02;;;1.80;;
27722;SDS011;15123;-37.794;175.246;2023-07-02T04:10:40;13.18;;;2.80;;
27722;SDS011;15123;-37.794;175.246;2023-07-02T04:14:05;10.70;;;1.75;;
27722;SDS011;15123;-37.794;175.246;2023-07-02T04:17:30;9.90;;;1.90;;
27722;SDS011;15123;-37.794;175.246;2023-07-02T04:20:54;13.55;;;1.70;;
27722;SDS011;15123;-37.794;175.246;2023-07-02T04:24:19;17.08;;;6.05;;
27722;SDS011;15123;-37.794;175.246;2023-07-02T04:27:45;15.23;;;4.07;;
27722;SDS011;15123;-37.794;175.246;2023-07-02T04:31:14;10.05;;;3.33;;
27722;SDS011;15123;-37.794;175.246;2023-07-02T04:34:39;13.13;;;2.60;;
27722;SDS011;15123;-37.794;175.246;2023-07-02T04:38:04;12.07;;;3.63;;
27722;SDS011;15123;-37.794;175.246;2023-07-02T04:41:29;7.90;;;1.70;;
27722;SDS011;15123;-37.794;175.246;2023-07-02T04:44:54;29.80;;;16.98;;
27722;SDS011;15123;-37.794;175.246;2023-07-02T04:48:18;10.07;;;1.60;;
27722;SDS011;15123;-37.794;175.246;2023-07-02T04:51:43;12.75;;;2.35;;
27722;SDS011;15123;-37.794;175.246;2023-07-02T04:55:07;13.50;;;2.90;;
27722;SDS011;15123;-37.794;175.246;2023-07-02T04:58:31;11.13;;;1.92;;
27722;SDS011;15123;-37.794;175.246;2023-07-02T05:01:50;12.52;;;3.42;;
27722;SDS011;15123;-37.794;175.246;2023-07-02T05:05:14;10.95;;;2.72;;
27722;SDS011;15123;-37.794;175.246;2023-07-02T05:08:38;12.55;;;2.75;;
27722;SDS011;15123;-37.794;175.246;2023-07-02T05:12:03;17.45;;;6.07;;
27722;SDS011;15123;-37.794;175.246;2023-07-02T05:15:27;30.08;;;8.85;;
27722;SDS011;15123;-37.794;175.246;2023-07-02T05:18:53;21.67;;;8.30;;
27722;SDS011;15123;-37.794;175.246;2023-07-02T05:22:17;19.52;;;6.35;;
27722;SDS011;15123;-37.794;175.246;2023-07-02T05:25:43;14.93;;;4.68;;
27722;SDS011;15123;-37.794;175.246;2023-07-02T05:29:07;20.48;;;5.50;;
27722;SDS011;15123;-37.794;175.246;2023-07-02T05:32:33;12.50;;;2.53;;
27722;SDS011;15123;-37.794;175.246;2023-07-02T05:35:59;19.50;;;5.90;;
27722;SDS011;15123;-37.794;175.246;2023-07-02T05:39:23;32.72;;;10.98;;
27722;SDS011;15123;-37.794;175.246;2023-07-02T05:42:47;29.13;;;9.23;;
27722;SDS011;15123;-37.794;175.246;2023-07-02T05:46:11;18.27;;;4.95;;
27722;SDS011;15123;-37.794;175.246;2023-07-02T05:49:36;13.80;;;4.10;;
27722;SDS011;15123;-37.794;175.246;2023-07-02T05:53:00;25.77;;;5.68;;
27722;SDS011;15123;-37.794;175.246;2023-07-02T05:56:26;32.70;;;8.98;;
27722;SDS011;15123;-37.794;175.246;2023-07-02T05:59:50;57.28;;;18.52;;
27722;SDS011;15123;-37.794;175.246;2023-07-02T06:03:14;22.67;;;9.23;;
27722;SDS011;15123;-37.794;175.246;2023-07-02T06:06:40;28.90;;;12.60;;
27722;SDS011;15123;-37.794;175.246;2023-07-02T06:10:04;35.17;;;14.93;;
27722;SDS011;15123;-37.794;175.246;2023-07-02T06:13:29;28.73;;;16.45;;
27722;SDS011;15123;-37.794;175.246;2023-07-02T06:16:53;25.08;;;10.52;;
27722;SDS011;15123;-37.794;175.246;2023-07-02T06:20:22;41.05;;;15.68;;
27722;SDS011;15123;-37.794;175.246;2023-07-02T06:23:47;18.17;;;4.88;;
27722;SDS011;15123;-37.794;175.246;2023-07-02T06:27:11;17.17;;;3.50;;
27722;SDS011;15123;-37.794;175.246;2023-07-02T06:30:35;16.63;;;2.90;;
27722;SDS011;15123;-37.794;175.246;2023-07-02T06:34:01;14.15;;;2.55;;
27722;SDS011;15123;-37.794;175.246;2023-07-02T06:37:25;14.38;;;3.40;;
27722;SDS011;15123;-37.794;175.246;2023-07-02T06:40:50;15.52;;;2.90;;
27722;SDS011;15123;-37.794;175.246;2023-07-02T06:44:14;16.05;;;3.55;;
27722;SDS011;15123;-37.794;175.246;2023-07-02T06:47:39;11.23;;;2.35;;
27722;SDS011;15123;-37.794;175.246;2023-07-02T06:51:03;10.93;;;1.90;;
27722;SDS011;15123;-37.794;175.246;2023-07-02T06:54:32;15.25;;;2.03;;
27722;SDS011;15123;-37.794;175.246;2023-07-02T06:57:57;14.55;;;2.15;;
27722;SDS011;15123;-37.794;175.246;2023-07-02T07:01:23;12.27;;;1.70;;
27722;SDS011;15123;-37.794;175.246;2023-07-02T07:04:48;15.68;;;2.30;;
27722;SDS011;15123;-37.794;175.246;2023-07-02T07:08:12;11.88;;;1.40;;
27722;SDS011;15123;-37.794;175.246;2023-07-02T07:11:37;11.48;;;1.55;;
27722;SDS011;15123;-37.794;175.246;2023-07-02T07:15:02;18.58;;;1.75;;
27722;SDS011;15123;-37.794;175.246;2023-07-02T07:18:28;13.55;;;1.77;;
27722;SDS011;15123;-37.794;175.246;2023-07-02T07:21:52;13.02;;;1.70;;
27722;SDS011;15123;-37.794;175.246;2023-07-02T07:25:16;13.70;;;1.83;;
27722;SDS011;15123;-37.794;175.246;2023-07-02T07:28:41;16.80;;;2.55;;
27722;SDS011;15123;-37.794;175.246;2023-07-02T07:32:05;13.73;;;2.03;;
27722;SDS011;15123;-37.794;175.246;2023-07-02T07:35:30;11.60;;;2.47;;
27722;SDS011;15123;-37.794;175.246;2023-07-02T07:38:55;15.02;;;2.40;;
27722;SDS011;15123;-37.794;175.246;2023-07-02T07:42:20;12.77;;;1.70;;
27722;SDS011;15123;-37.794;175.246;2023-07-02T07:45:45;12.73;;;1.33;;
27722;SDS011;15123;-37.794;175.246;2023-07-02T07:49:09;10.60;;;1.95;;
27722;SDS011;15123;-37.794;175.246;2023-07-02T07:52:34;9.13;;;1.20;;
27722;SDS011;15123;-37.794;175.246;2023-07-02T07:55:58;11.65;;;1.27;;
27722;SDS011;15123;-37.794;175.246;2023-07-02T07:59:22;10.00;;;1.73;;
27722;SDS011;15123;-37.794;175.246;2023-07-02T08:02:46;9.40;;;1.20;;
27722;SDS011;15123;-37.794;175.246;2023-07-02T08:06:11;8.77;;;1.20;;
27722;SDS011;15123;-37.794;175.246;2023-07-02T08:09:36;10.10;;;1.05;;
27722;SDS011;15123;-37.794;175.246;2023-07-02T08:13:00;19.30;;;4.28;;
27722;SDS011;15123;-37.794;175.246;2023-07-02T08:16:24;14.70;;;2.30;;
27722;SDS011;15123;-37.794;175.246;2023-07-02T08:19:49;9.88;;;1.33;;
27722;SDS011;15123;-37.794;175.246;2023-07-02T08:23:15;10.05;;;1.70;;
27722;SDS011;15123;-37.794;175.246;2023-07-02T08:26:39;9.80;;;1.55;;
27722;SDS011;15123;-37.794;175.246;2023-07-02T08:30:05;8.90;;;1.20;;
27722;SDS011;15123;-37.794;175.246;2023-07-02T08:33:29;10.45;;;1.52;;
27722;SDS011;15123;-37.794;175.246;2023-07-02T08:36:54;9.93;;;1.25;;
27722;SDS011;15123;-37.794;175.246;2023-07-02T08:40:18;8.05;;;1.30;;
27722;SDS011;15123;-37.794;175.246;2023-07-02T08:43:44;9.80;;;1.55;;
27722;SDS011;15123;-37.794;175.246;2023-07-02T08:47:08;13.75;;;1.60;;
27722;SDS011;15123;-37.794;175.246;2023-07-02T08:50:32;10.45;;;1.50;;
27722;SDS011;15123;-37.794;175.246;2023-07-02T08:53:57;10.25;;;1.42;;
27722;SDS011;15123;-37.794;175.246;2023-07-02T08:57:21;11.25;;;1.60;;
27722;SDS011;15123;-37.794;175.246;2023-07-02T09:01:04;9.48;;;1.83;;
27722;SDS011;15123;-37.794;175.246;2023-07-02T09:04:31;14.13;;;1.75;;
27722;SDS011;15123;-37.794;175.246;2023-07-02T09:07:58;11.18;;;1.95;;
27722;SDS011;15123;-37.794;175.246;2023-07-02T09:11:23;14.70;;;2.97;;
27722;SDS011;15123;-37.794;175.246;2023-07-02T09:14:53;18.30;;;4.85;;
27722;SDS011;15123;-37.794;175.246;2023-07-02T09:18:25;18.67;;;4.22;;
27722;SDS011;15123;-37.794;175.246;2023-07-02T09:21:49;22.00;;;5.30;;
27722;SDS011;15123;-37.794;175.246;2023-07-02T09:25:15;21.08;;;5.30;;
27722;SDS011;15123;-37.794;175.246;2023-07-02T09:28:40;17.73;;;3.08;;
27722;SDS011;15123;-37.794;175.246;2023-07-02T09:32:05;21.02;;;2.20;;
27722;SDS011;15123;-37.794;175.246;2023-07-02T09:35:30;16.77;;;1.80;;
27722;SDS011;15123;-37.794;175.246;2023-07-02T09:38:55;13.40;;;1.70;;
27722;SDS011;15123;-37.794;175.246;2023-07-02T09:42:20;16.75;;;2.35;;
27722;SDS011;15123;-37.794;175.246;2023-07-02T09:45:47;25.02;;;4.50;;
27722;SDS011;15123;-37.794;175.246;2023-07-02T09:49:13;13.15;;;1.80;;
27722;SDS011;15123;-37.794;175.246;2023-07-02T09:52:39;18.80;;;2.28;;
27722;SDS011;15123;-37.794;175.246;2023-07-02T09:56:03;14.55;;;1.83;;
27722;SDS011;15123;-37.794;175.246;2023-07-02T09:59:27;15.07;;;1.83;;
27722;SDS011;15123;-37.794;175.246;2023-07-02T10:02:51;14.32;;;2.00;;
27722;SDS011;15123;-37.794;175.246;2023-07-02T10:06:16;15.93;;;2.50;;
27722;SDS011;15123;-37.794;175.246;2023-07-02T10:09:35;12.52;;;1.85;;
27722;SDS011;15123;-37.794;175.246;2023-07-02T10:13:03;15.70;;;1.70;;
27722;SDS011;15123;-37.794;175.246;2023-07-02T10:16:27;11.82;;;2.03;;
27722;SDS011;15123;-37.794;175.246;2023-07-02T10:19:52;18.00;;;2.58;;
27722;SDS011;15123;-37.794;175.246;2023-07-02T10:23:18;16.70;;;2.08;;
27722;SDS011;15123;-37.794;175.246;2023-07-02T10:26:54;17.63;;;2.55;;
27722;SDS011;15123;-37.794;175.246;2023-07-02T10:30:36;13.85;;;1.73;;
27722;SDS011;15123;-37.794;175.246;2023-07-02T10:34:01;13.68;;;1.73;;
27722;SDS011;15123;-37.794;175.246;2023-07-02T10:37:26;13.00;;;1.88;;
27722;SDS011;15123;-37.794;175.246;2023-07-02T10:40:55;17.73;;;2.78;;
27722;SDS011;15123;-37.794;175.246;2023-07-02T10:44:21;18.42;;;3.85;;
27722;SDS011;15123;-37.794;175.246;2023-07-02T10:47:45;22.65;;;4.80;;
27722;SDS011;15123;-37.794;175.246;2023-07-02T10:51:12;17.77;;;4.40;;
27722;SDS011;15123;-37.794;175.246;2023-07-02T10:54:45;14.30;;;2.00;;
27722;SDS011;15123;-37.794;175.246;2023-07-02T10:58:10;15.05;;;2.10;;
27722;SDS011;15123;-37.794;175.246;2023-07-02T11:01:35;16.90;;;2.33;;
27722;SDS011;15123;-37.794;175.246;2023-07-02T11:05:00;18.42;;;2.30;;
27722;SDS011;15123;-37.794;175.246;2023-07-02T11:08:37;15.77;;;2.00;;
27722;SDS011;15123;-37.794;175.246;2023-07-02T11:11:56;12.43;;;1.65;;
27722;SDS011;15123;-37.794;175.246;2023-07-02T11:15:15;11.98;;;1.52;;
27722;SDS011;15123;-37.794;175.246;2023-07-02T11:18:40;10.25;;;1.48;;
27722;SDS011;15123;-37.794;175.246;2023-07-02T11:22:04;8.32;;;1.38;;
27722;SDS011;15123;-37.794;175.246;2023-07-02T11:25:29;9.07;;;1.38;;
27722;SDS011;15123;-37.794;175.246;2023-07-02T11:28:54;7.15;;;0.95;;
27722;SDS011;15123;-37.794;175.246;2023-07-02T11:32:19;7.65;;;1.00;;
27722;SDS011;15123;-37.794;175.246;2023-07-02T11:35:44;11.68;;;1.33;;
27722;SDS011;15123;-37.794;175.246;2023-07-02T11:39:08;9.43;;;0.98;;
27722;SDS011;15123;-37.794;175.246;2023-07-02T11:42:33;7.80;;;0.90;;
27722;SDS011;15123;-37.794;175.246;2023-07-02T11:45:58;8.07;;;1.20;;
27722;SDS011;15123;-37.794;175.246;2023-07-02T11:49:23;8.55;;;1.20;;
27722;SDS011;15123;-37.794;175.246;2023-07-02T11:52:47;8.13;;;1.05;;
27722;SDS011;15123;-37.794;175.246;2023-07-02T11:56:13;10.43;;;0.90;;
27722;SDS011;15123;-37.794;175.246;2023-07-02T11:59:38;7.18;;;0.90;;
27722;SDS011;15123;-37.794;175.246;2023-07-02T12:03:02;6.90;;;1.30;;
27722;SDS011;15123;-37.794;175.246;2023-07-02T12:06:28;7.25;;;1.00;;
27722;SDS011;15123;-37.794;175.246;2023-07-02T12:09:52;9.65;;;1.70;;
27722;SDS011;15123;-37.794;175.246;2023-07-02T12:13:12;9.73;;;1.73;;
27722;SDS011;15123;-37.794;175.246;2023-07-02T12:16:30;10.52;;;2.08;;
27722;SDS011;15123;-37.794;175.246;2023-07-02T12:19:54;31.83;;;8.02;;
27722;SDS011;15123;-37.794;175.246;2023-07-02T12:23:20;19.95;;;4.88;;
27722;SDS011;15123;-37.794;175.246;2023-07-02T12:26:44;11.43;;;2.10;;
27722;SDS011;15123;-37.794;175.246;2023-07-02T12:30:09;13.82;;;3.08;;
27722;SDS011;15123;-37.794;175.246;2023-07-02T12:33:34;21.13;;;3.10;;
27722;SDS011;15123;-37.794;175.246;2023-07-02T12:36:58;13.73;;;2.00;;
27722;SDS011;15123;-37.794;175.246;2023-07-02T12:40:22;15.65;;;2.10;;
27722;SDS011;15123;-37.794;175.246;2023-07-02T12:43:46;11.88;;;1.50;;
27722;SDS011;15123;-37.794;175.246;2023-07-02T12:47:10;14.02;;;1.90;;
27722;SDS011;15123;-37.794;175.246;2023-07-02T12:50:34;10.88;;;1.70;;
27722;SDS011;15123;-37.794;175.246;2023-07-02T12:54:01;6.85;;;1.20;;
27722;SDS011;15123;-37.794;175.246;2023-07-02T12:57:26;7.18;;;1.90;;
27722;SDS011;15123;-37.794;175.246;2023-07-02T13:00:50;8.63;;;1.10;;
27722;SDS011;15123;-37.794;175.246;2023-07-02T13:04:14;11.70;;;1.50;;
27722;SDS011;15123;-37.794;175.246;2023-07-02T13:07:38;11.88;;;1.45;;
27722;SDS011;15123;-37.794;175.246;2023-07-02T13:11:03;14.52;;;2.33;;
27722;SDS011;15123;-37.794;175.246;2023-07-02T13:14:27;11.10;;;1.90;;
27722;SDS011;15123;-37.794;175.246;2023-07-02T13:17:51;10.35;;;2.13;;
27722;SDS011;15123;-37.794;175.246;2023-07-02T13:21:16;20.30;;;4.05;;
27722;SDS011;15123;-37.794;175.246;2023-07-02T13:24:41;14.10;;;2.15;;
27722;SDS011;15123;-37.794;175.246;2023-07-02T13:28:06;11.52;;;2.05;;
27722;SDS011;15123;-37.794;175.246;2023-07-02T13:31:30;11.30;;;1.13;;
27722;SDS011;15123;-37.794;175.246;2023-07-02T13:34:55;9.30;;;1.35;;
27722;SDS011;15123;-37.794;175.246;2023-07-02T13:38:20;8.80;;;1.17;;
27722;SDS011;15123;-37.794;175.246;2023-07-02T13:41:44;12.35;;;1.20;;
27722;SDS011;15123;-37.794;175.246;2023-07-02T13:45:08;9.25;;;1.20;;
27722;SDS011;15123;-37.794;175.246;2023-07-02T13:48:33;9.48;;;1.30;;
27722;SDS011;15123;-37.794;175.246;2023-07-02T13:51:58;11.45;;;1.30;;
27722;SDS011;15123;-37.794;175.246;2023-07-02T13:55:23;10.68;;;1.70;;
27722;SDS011;15123;-37.794;175.246;2023-07-02T14:02:21;12.25;;;1.88;;
27722;SDS011;15123;-37.794;175.246;2023-07-02T14:05:48;12.55;;;1.50;;
27722;SDS011;15123;-37.794;175.246;2023-07-02T14:09:13;14.57;;;1.45;;
27722;SDS011;15123;-37.794;175.246;2023-07-02T14:12:37;16.73;;;1.80;;
27722;SDS011;15123;-37.794;175.246;2023-07-02T14:15:55;17.38;;;1.95;;
27722;SDS011;15123;-37.794;175.246;2023-07-02T14:19:13;17.38;;;1.85;;
27722;SDS011;15123;-37.794;175.246;2023-07-02T14:22:38;17.13;;;1.70;;
27722;SDS011;15123;-37.794;175.246;2023-07-02T14:26:02;12.75;;;1.60;;
27722;SDS011;15123;-37.794;175.246;2023-07-02T14:29:27;18.77;;;2.10;;
27722;SDS011;15123;-37.794;175.246;2023-07-02T14:32:52;16.38;;;1.98;;
27722;SDS011;15123;-37.794;175.246;2023-07-02T14:36:17;16.92;;;2.53;;
27722;SDS011;15123;-37.794;175.246;2023-07-02T14:39:42;14.02;;;1.75;;
27722;SDS011;15123;-37.794;175.246;2023-07-02T14:43:14;18.23;;;2.15;;
27722;SDS011;15123;-37.794;175.246;2023-07-02T14:46:38;13.00;;;2.15;;
27722;SDS011;15123;-37.794;175.246;2023-07-02T14:50:02;20.83;;;2.42;;
27722;SDS011;15123;-37.794;175.246;2023-07-02T14:53:27;13.23;;;1.65;;
27722;SDS011;15123;-37.794;175.246;2023-07-02T14:56:51;16.80;;;1.75;;
27722;SDS011;15123;-37.794;175.246;2023-07-02T15:00:15;19.50;;;2.55;;
27722;SDS011;15123;-37.794;175.246;2023-07-02T15:03:40;21.88;;;2.53;;
27722;SDS011;15123;-37.794;175.246;2023-07-02T15:07:05;20.13;;;2.00;;
27722;SDS011;15123;-37.794;175.246;2023-07-02T15:10:30;15.75;;;1.85;;
27722;SDS011;15123;-37.794;175.246;2023-07-02T15:13:56;15.88;;;2.00;;
27722;SDS011;15123;-37.794;175.246;2023-07-02T15:17:15;20.00;;;2.13;;
27722;SDS011;15123;-37.794;175.246;2023-07-02T15:20:33;11.02;;;1.98;;
27722;SDS011;15123;-37.794;175.246;2023-07-02T15:24:00;18.30;;;2.50;;
27722;SDS011;15123;-37.794;175.246;2023-07-02T15:27:29;13.57;;;1.92;;
27722;SDS011;15123;-37.794;175.246;2023-07-02T15:30:53;15.77;;;1.55;;
27722;SDS011;15123;-37.794;175.246;2023-07-02T15:34:21;17.92;;;2.00;;
27722;SDS011;15123;-37.794;175.246;2023-07-02T15:37:45;17.27;;;2.60;;
27722;SDS011;15123;-37.794;175.246;2023-07-02T15:41:10;16.48;;;2.30;;
27722;SDS011;15123;-37.794;175.246;2023-07-02T15:44:39;18.48;;;2.67;;
27722;SDS011;15123;-37.794;175.246;2023-07-02T15:48:03;17.85;;;2.25;;
27722;SDS011;15123;-37.794;175.246;2023-07-02T15:51:27;14.63;;;1.50;;
27722;SDS011;15123;-37.794;175.246;2023-07-02T15:54:54;15.38;;;2.05;;
27722;SDS011;15123;-37.794;175.246;2023-07-02T15:58:18;15.20;;;2.42;;
27722;SDS011;15123;-37.794;175.246;2023-07-02T16:01:44;16.88;;;1.80;;
27722;SDS011;15123;-37.794;175.246;2023-07-02T16:05:10;14.63;;;2.20;;
27722;SDS011;15123;-37.794;175.246;2023-07-02T16:08:35;15.63;;;2.08;;
27722;SDS011;15123;-37.794;175.246;2023-07-02T16:12:00;14.27;;;1.77;;
27722;SDS011;15123;-37.794;175.246;2023-07-02T16:15:25;17.38;;;2.20;;
27722;SDS011;15123;-37.794;175.246;2023-07-02T16:18:50;14.00;;;1.40;;
27722;SDS011;15123;-37.794;175.246;2023-07-02T16:22:15;21.77;;;2.20;;
27722;SDS011;15123;-37.794;175.246;2023-07-02T16:25:40;13.18;;;1.40;;
27722;SDS011;15123;-37.794;175.246;2023-07-02T16:29:05;11.15;;;1.58;;
27722;SDS011;15123;-37.794;175.246;2023-07-02T16:32:29;15.93;;;1.63;;
27722;SDS011;15123;-37.794;175.246;2023-07-02T16:35:54;12.57;;;2.20;;
27722;SDS011;15123;-37.794;175.246;2023-07-02T16:39:19;13.95;;;1.88;;
27722;SDS011;15123;-37.794;175.246;2023-07-02T16:42:43;12.50;;;2.30;;
27722;SDS011;15123;-37.794;175.246;2023-07-02T16:46:08;13.63;;;1.63;;
27722;SDS011;15123;-37.794;175.246;2023-07-02T16:49:32;20.38;;;2.05;;
27722;SDS011;15123;-37.794;175.246;2023-07-02T16:52:58;15.02;;;2.15;;
27722;SDS011;15123;-37.794;175.246;2023-07-02T16:56:22;17.75;;;2.17;;
27722;SDS011;15123;-37.794;175.246;2023-07-02T16:59:49;19.90;;;2.22;;
27722;SDS011;15123;-37.794;175.246;2023-07-02T17:03:14;14.43;;;1.73;;
27722;SDS011;15123;-37.794;175.246;2023-07-02T17:06:43;9.82;;;1.40;;
27722;SDS011;15123;-37.794;175.246;2023-07-02T17:10:08;10.40;;;1.50;;
27722;SDS011;15123;-37.794;175.246;2023-07-02T17:13:32;15.48;;;1.77;;
27722;SDS011;15123;-37.794;175.246;2023-07-02T17:16:57;17.50;;;1.77;;
27722;SDS011;15123;-37.794;175.246;2023-07-02T17:20:16;14.60;;;1.52;;
27722;SDS011;15123;-37.794;175.246;2023-07-02T17:23:37;12.93;;;1.75;;
27722;SDS011;15123;-37.794;175.246;2023-07-02T17:27:02;14.00;;;1.55;;
27722;SDS011;15123;-37.794;175.246;2023-07-02T17:30:27;13.43;;;1.60;;
27722;SDS011;15123;-37.794;175.246;2023-07-02T17:33:53;10.35;;;1.35;;
27722;SDS011;15123;-37.794;175.246;2023-07-02T17:37:17;13.02;;;1.73;;
27722;SDS011;15123;-37.794;175.246;2023-07-02T17:40:44;18.38;;;1.83;;
27722;SDS011;15123;-37.794;175.246;2023-07-02T17:44:08;10.88;;;1.90;;
27722;SDS011;15123;-37.794;175.246;2023-07-02T17:47:33;14.73;;;1.70;;
27722;SDS011;15123;-37.794;175.246;2023-07-02T17:50:58;16.25;;;2.00;;
27722;SDS011;15123;-37.794;175.246;2023-07-02T17:54:22;19.05;;;2.40;;
27722;SDS011;15123;-37.794;175.246;2023-07-02T17:57:46;12.73;;;1.67;;
27722;SDS011;15123;-37.794;175.246;2023-07-02T18:01:12;21.58;;;2.28;;
27722;SDS011;15123;-37.794;175.246;2023-07-02T18:04:36;17.75;;;1.65;;
27722;SDS011;15123;-37.794;175.246;2023-07-02T18:08:01;16.80;;;2.50;;
27722;SDS011;15123;-37.794;175.246;2023-07-02T18:11:25;19.92;;;2.40;;
27722;SDS011;15123;-37.794;175.246;2023-07-02T18:14:50;17.20;;;2.20;;
27722;SDS011;15123;-37.794;175.246;2023-07-02T18:18:15;20.65;;;1.98;;
27722;SDS011;15123;-37.794;175.246;2023-07-02T18:21:34;21.58;;;2.28;;
27722;SDS011;15123;-37.794;175.246;2023-07-02T18:24:52;16.42;;;2.15;;
27722;SDS011;15123;-37.794;175.246;2023-07-02T18:28:16;14.73;;;2.13;;
27722;SDS011;15123;-37.794;175.246;2023-07-02T18:31:40;14.02;;;2.42;;
27722;SDS011;15123;-37.794;175.246;2023-07-02T18:35:05;15.80;;;2.00;;
27722;SDS011;15123;-37.794;175.246;2023-07-02T18:38:29;18.90;;;2.20;;
27722;SDS011;15123;-37.794;175.246;2023-07-02T18:41:54;18.40;;;2.10;;
27722;SDS011;15123;-37.794;175.246;2023-07-02T18:45:18;18.90;;;2.33;;
27722;SDS011;15123;-37.794;175.246;2023-07-02T18:48:42;17.40;;;2.35;;
27722;SDS011;15123;-37.794;175.246;2023-07-02T18:52:07;16.67;;;2.13;;
27722;SDS011;15123;-37.794;175.246;2023-07-02T18:55:34;16.38;;;2.50;;
27722;SDS011;15123;-37.794;175.246;2023-07-02T18:58:58;15.80;;;1.83;;
27722;SDS011;15123;-37.794;175.246;2023-07-02T19:02:22;16.00;;;1.65;;
27722;SDS011;15123;-37.794;175.246;2023-07-02T19:05:48;17.17;;;1.88;;
27722;SDS011;15123;-37.794;175.246;2023-07-02T19:09:13;14.57;;;1.55;;
27722;SDS011;15123;-37.794;175.246;2023-07-02T19:12:37;13.95;;;1.60;;
27722;SDS011;15123;-37.794;175.246;2023-07-02T19:16:02;13.73;;;2.08;;
27722;SDS011;15123;-37.794;175.246;2023-07-02T19:19:26;12.95;;;1.40;;
27722;SDS011;15123;-37.794;175.246;2023-07-02T19:22:44;17.38;;;2.20;;
27722;SDS011;15123;-37.794;175.246;2023-07-02T19:26:02;13.35;;;1.90;;
27722;SDS011;15123;-37.794;175.246;2023-07-02T19:29:26;10.50;;;1.55;;